sensor_id;sensor_type;location;lat;lon;timestamp;temperature;humidity
12115;DHT22;6121;49.810;6.418;2023-08-06T00:00:09;15.40;99.90
12115;DHT22;6121;49.810;6.418;2023-08-06T00:02:35;15.50;99.90
12115;DHT22;6121;49.810;6.418;2023-08-06T00:05:01;15.40;99.90
12115;DHT22;6121;49.810;6.418;2023-08-06T00:07:27;15.40;99.90
12115;DHT22;6121;49.810;6.418;2023-08-06T00:09:52;15.40;99.90
12115;DHT22;6121;49.810;6.418;2023-08-06T00:12:21;15.50;99.90
12115;DHT22;6121;49.810;6.418;2023-08-06T00:14:53;15.40;99.90
12115;DHT22;6121;49.810;6.418;2023-08-06T00:17:18;15.40;99.90
12115;DHT22;6121;49.810;6.418;2023-08-06T00:19:44;15.50;99.90
12115;DHT22;6121;49.810;6.418;2023-08-06T00:22:10;15.50;99.90
12115;DHT22;6121;49.810;6.418;2023-08-06T00:24:36;15.50;99.90
12115;DHT22;6121;49.810;6.418;2023-08-06T00:27:02;15.40;99.90
12115;DHT22;6121;49.810;6.418;2023-08-06T00:29:28;15.50;99.90
12115;DHT22;6121;49.810;6.418;2023-08-06T00:31:54;15.40;99.90
12115;DHT22;6121;49.810;6.418;2023-08-06T00:34:20;15.40;99.90
12115;DHT22;6121;49.810;6.418;2023-08-06T00:36:46;15.40;99.90
12115;DHT22;6121;49.810;6.418;2023-08-06T00:39:13;15.40;99.90
12115;DHT22;6121;49.810;6.418;2023-08-06T00:41:39;15.40;99.90
12115;DHT22;6121;49.810;6.418;2023-08-06T00:44:05;15.50;99.90
12115;DHT22;6121;49.810;6.418;2023-08-06T00:46:32;15.50;99.90
12115;DHT22;6121;49.810;6.418;2023-08-06T00:48:58;15.50;99.90
12115;DHT22;6121;49.810;6.418;2023-08-06T00:51:25;15.50;99.90
12115;DHT22;6121;49.810;6.418;2023-08-06T00:53:52;15.50;99.90
12115;DHT22;6121;49.810;6.418;2023-08-06T00:56:19;15.60;99.90
12115;DHT22;6121;49.810;6.418;2023-08-06T00:58:46;15.60;99.90
12115;DHT22;6121;49.810;6.418;2023-08-06T01:01:12;15.60;99.90
12115;DHT22;6121;49.810;6.418;2023-08-06T01:03:38;15.60;99.90
12115;DHT22;6121;49.810;6.418;2023-08-06T01:06:04;15.50;99.90
12115;DHT22;6121;49.810;6.418;2023-08-06T01:09:01;15.60;99.90
12115;DHT22;6121;49.810;6.418;2023-08-06T01:14:06;15.60;99.90
12115;DHT22;6121;49.810;6.418;2023-08-06T01:16:34;15.70;99.90
12115;DHT22;6121;49.810;6.418;2023-08-06T01:19:01;15.60;99.90
12115;DHT22;6121;49.810;6.418;2023-08-06T01:21:27;15.70;99.90
12115;DHT22;6121;49.810;6.418;2023-08-06T01:23:53;15.70;99.90
12115;DHT22;6121;49.810;6.418;2023-08-06T01:26:32;15.70;99.90
12115;DHT22;6121;49.810;6.418;2023-08-06T01:29:15;15.70;99.90
12115;DHT22;6121;49.810;6.418;2023-08-06T01:31:44;15.80;99.90
12115;DHT22;6121;49.810;6.418;2023-08-06T01:34:27;15.80;99.90
12115;DHT22;6121;49.810;6.418;2023-08-06T01:36:53;15.80;99.90
12115;DHT22;6121;49.810;6.418;2023-08-06T01:39:19;15.80;99.90
12115;DHT22;6121;49.810;6.418;2023-08-06T01:41:48;15.80;99.90
12115;DHT22;6121;49.810;6.418;2023-08-06T01:44:15;15.80;99.90
12115;DHT22;6121;49.810;6.418;2023-08-06T01:46:41;15.80;99.90
12115;DHT22;6121;49.810;6.418;2023-08-06T01:49:07;15.80;99.90
12115;DHT22;6121;49.810;6.418;2023-08-06T01:51:33;15.80;99.90
12115;DHT22;6121;49.810;6.418;2023-08-06T01:54:01;15.80;99.90
12115;DHT22;6121;49.810;6.418;2023-08-06T01:56:26;15.80;99.90
12115;DHT22;6121;49.810;6.418;2023-08-06T01:58:52;15.80;99.90
12115;DHT22;6121;49.810;6.418;2023-08-06T02:01:18;15.80;99.90
12115;DHT22;6121;49.810;6.418;2023-08-06T02:03:45;15.80;99.90
12115;DHT22;6121;49.810;6.418;2023-08-06T02:06:11;15.80;99.90
12115;DHT22;6121;49.810;6.418;2023-08-06T02:08:36;15.80;99.90
12115;DHT22;6121;49.810;6.418;2023-08-06T02:11:02;15.80;99.90
12115;DHT22;6121;49.810;6.418;2023-08-06T02:13:30;15.80;99.90
12115;DHT22;6121;49.810;6.418;2023-08-06T02:15:56;15.70;99.90
12115;DHT22;6121;49.810;6.418;2023-08-06T02:18:22;15.70;99.90
12115;DHT22;6121;49.810;6.418;2023-08-06T02:21:00;15.70;99.90
12115;DHT22;6121;49.810;6.418;2023-08-06T02:23:26;15.70;99.90
12115;DHT22;6121;49.810;6.418;2023-08-06T02:26:02;15.70;99.90
12115;DHT22;6121;49.810;6.418;2023-08-06T02:28:29;15.60;99.90
12115;DHT22;6121;49.810;6.418;2023-08-06T02:30:55;15.60;99.90
12115;DHT22;6121;49.810;6.418;2023-08-06T02:33:21;15.70;99.90
12115;DHT22;6121;49.810;6.418;2023-08-06T02:35:47;15.70;99.90
12115;DHT22;6121;49.810;6.418;2023-08-06T02:38:13;15.70;99.90
12115;DHT22;6121;49.810;6.418;2023-08-06T02:40:46;15.70;99.90
12115;DHT22;6121;49.810;6.418;2023-08-06T02:43:13;15.70;99.90
12115;DHT22;6121;49.810;6.418;2023-08-06T02:45:39;15.70;99.90
12115;DHT22;6121;49.810;6.418;2023-08-06T02:48:05;15.70;99.90
12115;DHT22;6121;49.810;6.418;2023-08-06T02:50:31;15.80;99.90
12115;DHT22;6121;49.810;6.418;2023-08-06T02:52:58;15.70;99.90
12115;DHT22;6121;49.810;6.418;2023-08-06T02:55:24;15.70;99.90
12115;DHT22;6121;49.810;6.418;2023-08-06T02:57:50;15.70;99.90
12115;DHT22;6121;49.810;6.418;2023-08-06T03:00:16;15.60;99.90
12115;DHT22;6121;49.810;6.418;2023-08-06T03:02:42;15.70;99.90
12115;DHT22;6121;49.810;6.418;2023-08-06T03:05:31;15.80;99.90
12115;DHT22;6121;49.810;6.418;2023-08-06T03:07:56;15.70;99.90
12115;DHT22;6121;49.810;6.418;2023-08-06T03:10:26;15.70;99.90
12115;DHT22;6121;49.810;6.418;2023-08-06T03:12:54;15.70;99.90
12115;DHT22;6121;49.810;6.418;2023-08-06T03:15:21;15.70;99.90
12115;DHT22;6121;49.810;6.418;2023-08-06T03:17:48;15.70;99.90
12115;DHT22;6121;49.810;6.418;2023-08-06T03:20:16;15.70;99.90
12115;DHT22;6121;49.810;6.418;2023-08-06T03:22:42;15.60;99.90
12115;DHT22;6121;49.810;6.418;2023-08-06T03:25:08;15.60;99.90
12115;DHT22;6121;49.810;6.418;2023-08-06T03:27:35;15.60;99.90
12115;DHT22;6121;49.810;6.418;2023-08-06T03:30:01;15.70;99.90
12115;DHT22;6121;49.810;6.418;2023-08-06T03:32:30;15.70;99.90
12115;DHT22;6121;49.810;6.418;2023-08-06T03:34:57;15.70;99.90
12115;DHT22;6121;49.810;6.418;2023-08-06T03:37:26;15.70;99.90
12115;DHT22;6121;49.810;6.418;2023-08-06T03:39:53;15.60;99.90
12115;DHT22;6121;49.810;6.418;2023-08-06T03:42:20;15.60;99.90
12115;DHT22;6121;49.810;6.418;2023-08-06T03:44:46;15.50;99.90
12115;DHT22;6121;49.810;6.418;2023-08-06T03:47:13;15.60;99.90
12115;DHT22;6121;49.810;6.418;2023-08-06T03:49:39;15.50;99.90
12115;DHT22;6121;49.810;6.418;2023-08-06T03:52:06;15.60;99.90
12115;DHT22;6121;49.810;6.418;2023-08-06T03:54:32;15.50;99.90
12115;DHT22;6121;49.810;6.418;2023-08-06T03:56:58;15.60;99.90
12115;DHT22;6121;49.810;6.418;2023-08-06T03:59:24;15.60;99.90
12115;DHT22;6121;49.810;6.418;2023-08-06T04:01:50;15.60;99.90
12115;DHT22;6121;49.810;6.418;2023-08-06T04:04:16;15.60;99.90
12115;DHT22;6121;49.810;6.418;2023-08-06T04:06:41;15.60;99.90
12115;DHT22;6121;49.810;6.418;2023-08-06T04:09:07;15.60;99.90
12115;DHT22;6121;49.810;6.418;2023-08-06T04:11:33;15.50;99.90
12115;DHT22;6121;49.810;6.418;2023-08-06T04:13:59;15.40;99.90
12115;DHT22;6121;49.810;6.418;2023-08-06T04:16:24;15.60;99.90
12115;DHT22;6121;49.810;6.418;2023-08-06T04:18:52;15.60;99.90
12115;DHT22;6121;49.810;6.418;2023-08-06T04:21:19;15.50;99.90
12115;DHT22;6121;49.810;6.418;2023-08-06T04:23:47;15.60;99.90
12115;DHT22;6121;49.810;6.418;2023-08-06T04:26:14;15.60;99.90
12115;DHT22;6121;49.810;6.418;2023-08-06T04:28:40;15.60;99.90
12115;DHT22;6121;49.810;6.418;2023-08-06T04:31:07;15.60;99.90
12115;DHT22;6121;49.810;6.418;2023-08-06T04:33:33;15.50;99.90
12115;DHT22;6121;49.810;6.418;2023-08-06T04:36:06;15.60;99.90
12115;DHT22;6121;49.810;6.418;2023-08-06T04:38:33;15.60;99.90
12115;DHT22;6121;49.810;6.418;2023-08-06T04:40:59;15.40;99.90
12115;DHT22;6121;49.810;6.418;2023-08-06T04:43:25;15.60;99.90
12115;DHT22;6121;49.810;6.418;2023-08-06T04:45:54;15.60;99.90
12115;DHT22;6121;49.810;6.418;2023-08-06T04:48:20;15.70;99.90
12115;DHT22;6121;49.810;6.418;2023-08-06T04:50:50;15.70;99.90
12115;DHT22;6121;49.810;6.418;2023-08-06T04:53:16;15.60;99.90
12115;DHT22;6121;49.810;6.418;2023-08-06T04:55:42;15.60;99.90
12115;DHT22;6121;49.810;6.418;2023-08-06T04:58:09;15.50;99.90
12115;DHT22;6121;49.810;6.418;2023-08-06T05:00:35;15.40;99.90
12115;DHT22;6121;49.810;6.418;2023-08-06T05:03:01;15.40;99.90
12115;DHT22;6121;49.810;6.418;2023-08-06T05:05:28;15.40;99.90
12115;DHT22;6121;49.810;6.418;2023-08-06T05:07:55;15.40;99.90
12115;DHT22;6121;49.810;6.418;2023-08-06T05:10:27;15.40;99.90
12115;DHT22;6121;49.810;6.418;2023-08-06T05:12:53;15.50;99.90
12115;DHT22;6121;49.810;6.418;2023-08-06T05:15:20;15.50;99.90
12115;DHT22;6121;49.810;6.418;2023-08-06T05:17:46;15.50;99.90
12115;DHT22;6121;49.810;6.418;2023-08-06T05:20:13;15.60;99.90
12115;DHT22;6121;49.810;6.418;2023-08-06T05:22:38;15.60;99.90
12115;DHT22;6121;49.810;6.418;2023-08-06T05:25:04;15.60;99.90
12115;DHT22;6121;49.810;6.418;2023-08-06T05:27:32;15.70;99.90
12115;DHT22;6121;49.810;6.418;2023-08-06T05:29:57;15.80;99.90
12115;DHT22;6121;49.810;6.418;2023-08-06T05:32:24;15.80;99.90
12115;DHT22;6121;49.810;6.418;2023-08-06T05:34:49;15.70;99.90
12115;DHT22;6121;49.810;6.418;2023-08-06T05:37:15;15.90;99.90
12115;DHT22;6121;49.810;6.418;2023-08-06T05:39:41;15.80;99.90
12115;DHT22;6121;49.810;6.418;2023-08-06T05:42:07;16.00;99.90
12115;DHT22;6121;49.810;6.418;2023-08-06T05:44:33;16.00;99.90
12115;DHT22;6121;49.810;6.418;2023-08-06T05:47:00;16.10;99.90
12115;DHT22;6121;49.810;6.418;2023-08-06T05:49:26;16.10;99.90
12115;DHT22;6121;49.810;6.418;2023-08-06T05:51:51;16.20;99.90
12115;DHT22;6121;49.810;6.418;2023-08-06T05:54:19;16.30;99.90
12115;DHT22;6121;49.810;6.418;2023-08-06T05:56:45;16.30;99.90
12115;DHT22;6121;49.810;6.418;2023-08-06T05:59:11;16.30;99.90
12115;DHT22;6121;49.810;6.418;2023-08-06T06:01:37;16.30;99.90
12115;DHT22;6121;49.810;6.418;2023-08-06T06:04:03;16.40;99.90
12115;DHT22;6121;49.810;6.418;2023-08-06T06:06:29;16.30;99.90
12115;DHT22;6121;49.810;6.418;2023-08-06T06:08:54;16.20;99.90
12115;DHT22;6121;49.810;6.418;2023-08-06T06:11:21;16.20;99.90
12115;DHT22;6121;49.810;6.418;2023-08-06T06:13:51;16.20;99.90
12115;DHT22;6121;49.810;6.418;2023-08-06T06:16:17;16.20;99.90
12115;DHT22;6121;49.810;6.418;2023-08-06T06:18:43;16.20;99.90
12115;DHT22;6121;49.810;6.418;2023-08-06T06:21:10;16.20;99.90
12115;DHT22;6121;49.810;6.418;2023-08-06T06:23:36;16.20;99.90
12115;DHT22;6121;49.810;6.418;2023-08-06T06:26:01;16.20;99.90
12115;DHT22;6121;49.810;6.418;2023-08-06T06:28:27;16.20;99.90
12115;DHT22;6121;49.810;6.418;2023-08-06T06:30:53;16.20;99.90
12115;DHT22;6121;49.810;6.418;2023-08-06T06:33:19;16.30;99.90
12115;DHT22;6121;49.810;6.418;2023-08-06T06:35:44;16.30;99.90
12115;DHT22;6121;49.810;6.418;2023-08-06T06:38:10;16.30;99.90
12115;DHT22;6121;49.810;6.418;2023-08-06T06:40:38;16.30;99.90
12115;DHT22;6121;49.810;6.418;2023-08-06T06:43:04;16.30;99.90
12115;DHT22;6121;49.810;6.418;2023-08-06T06:45:31;16.30;99.90
12115;DHT22;6121;49.810;6.418;2023-08-06T06:47:56;16.20;99.90
12115;DHT22;6121;49.810;6.418;2023-08-06T06:50:22;16.20;99.90
12115;DHT22;6121;49.810;6.418;2023-08-06T06:52:48;16.20;99.90
12115;DHT22;6121;49.810;6.418;2023-08-06T06:55:14;16.20;99.90
12115;DHT22;6121;49.810;6.418;2023-08-06T06:57:40;16.20;99.90
12115;DHT22;6121;49.810;6.418;2023-08-06T07:00:06;16.20;99.90
12115;DHT22;6121;49.810;6.418;2023-08-06T07:02:32;16.20;99.90
12115;DHT22;6121;49.810;6.418;2023-08-06T07:04:57;16.20;99.90
12115;DHT22;6121;49.810;6.418;2023-08-06T07:07:23;16.30;99.90
12115;DHT22;6121;49.810;6.418;2023-08-06T07:09:49;16.40;99.90
12115;DHT22;6121;49.810;6.418;2023-08-06T07:12:15;16.30;99.90
12115;DHT22;6121;49.810;6.418;2023-08-06T07:14:40;16.20;99.90
12115;DHT22;6121;49.810;6.418;2023-08-06T07:17:07;16.30;99.90
12115;DHT22;6121;49.810;6.418;2023-08-06T07:19:33;16.30;99.90
12115;DHT22;6121;49.810;6.418;2023-08-06T07:21:59;16.30;99.90
12115;DHT22;6121;49.810;6.418;2023-08-06T07:24:25;16.30;99.90
12115;DHT22;6121;49.810;6.418;2023-08-06T07:26:51;16.30;99.90
12115;DHT22;6121;49.810;6.418;2023-08-06T07:29:18;16.30;99.90
12115;DHT22;6121;49.810;6.418;2023-08-06T07:31:47;16.10;99.90
12115;DHT22;6121;49.810;6.418;2023-08-06T07:34:12;16.10;99.90
12115;DHT22;6121;49.810;6.418;2023-08-06T07:36:38;16.10;99.90
12115;DHT22;6121;49.810;6.418;2023-08-06T07:39:04;16.20;99.90
12115;DHT22;6121;49.810;6.418;2023-08-06T07:41:31;16.20;99.90
12115;DHT22;6121;49.810;6.418;2023-08-06T07:43:57;16.30;99.90
12115;DHT22;6121;49.810;6.418;2023-08-06T07:46:23;16.30;99.90
12115;DHT22;6121;49.810;6.418;2023-08-06T07:48:49;16.30;99.90
12115;DHT22;6121;49.810;6.418;2023-08-06T07:51:15;16.30;99.90
12115;DHT22;6121;49.810;6.418;2023-08-06T07:53:41;16.20;99.90
12115;DHT22;6121;49.810;6.418;2023-08-06T07:56:06;16.20;99.90
12115;DHT22;6121;49.810;6.418;2023-08-06T07:58:32;16.20;99.90
12115;DHT22;6121;49.810;6.418;2023-08-06T08:00:58;16.30;99.90
12115;DHT22;6121;49.810;6.418;2023-08-06T08:03:24;16.20;99.90
12115;DHT22;6121;49.810;6.418;2023-08-06T08:05:53;16.30;99.90
12115;DHT22;6121;49.810;6.418;2023-08-06T08:08:19;16.30;99.90
12115;DHT22;6121;49.810;6.418;2023-08-06T08:10:45;16.30;99.90
12115;DHT22;6121;49.810;6.418;2023-08-06T08:13:11;16.30;99.90
12115;DHT22;6121;49.810;6.418;2023-08-06T08:15:36;16.30;99.90
12115;DHT22;6121;49.810;6.418;2023-08-06T08:18:02;16.20;99.90
12115;DHT22;6121;49.810;6.418;2023-08-06T08:20:28;16.40;99.90
12115;DHT22;6121;49.810;6.418;2023-08-06T08:23:01;16.40;99.90
12115;DHT22;6121;49.810;6.418;2023-08-06T08:25:28;16.40;99.90
12115;DHT22;6121;49.810;6.418;2023-08-06T08:27:54;16.50;99.90
12115;DHT22;6121;49.810;6.418;2023-08-06T08:30:21;16.50;99.90
12115;DHT22;6121;49.810;6.418;2023-08-06T08:32:47;16.50;99.90
12115;DHT22;6121;49.810;6.418;2023-08-06T08:35:13;16.60;99.90
12115;DHT22;6121;49.810;6.418;2023-08-06T08:37:40;16.50;99.90
12115;DHT22;6121;49.810;6.418;2023-08-06T08:40:06;16.50;99.90
12115;DHT22;6121;49.810;6.418;2023-08-06T08:42:33;16.60;99.90
12115;DHT22;6121;49.810;6.418;2023-08-06T08:44:59;16.60;99.90
12115;DHT22;6121;49.810;6.418;2023-08-06T08:47:26;16.60;99.90
12115;DHT22;6121;49.810;6.418;2023-08-06T08:49:54;16.50;99.90
12115;DHT22;6121;49.810;6.418;2023-08-06T08:52:22;16.40;99.90
12115;DHT22;6121;49.810;6.418;2023-08-06T08:54:49;16.40;99.90
12115;DHT22;6121;49.810;6.418;2023-08-06T08:57:17;16.50;99.90
12115;DHT22;6121;49.810;6.418;2023-08-06T08:59:43;16.50;99.90
12115;DHT22;6121;49.810;6.418;2023-08-06T09:02:11;16.60;99.90
12115;DHT22;6121;49.810;6.418;2023-08-06T09:04:40;16.50;99.90
12115;DHT22;6121;49.810;6.418;2023-08-06T09:07:08;16.50;99.90
12115;DHT22;6121;49.810;6.418;2023-08-06T09:09:37;16.50;99.90
12115;DHT22;6121;49.810;6.418;2023-08-06T09:12:16;16.60;99.90
12115;DHT22;6121;49.810;6.418;2023-08-06T09:14:43;16.70;99.90
12115;DHT22;6121;49.810;6.418;2023-08-06T09:17:10;16.80;99.90
12115;DHT22;6121;49.810;6.418;2023-08-06T09:19:36;16.60;99.90
12115;DHT22;6121;49.810;6.418;2023-08-06T09:22:02;16.70;99.90
12115;DHT22;6121;49.810;6.418;2023-08-06T09:24:29;16.80;99.90
12115;DHT22;6121;49.810;6.418;2023-08-06T09:27:15;16.90;99.90
12115;DHT22;6121;49.810;6.418;2023-08-06T09:29:45;17.10;99.90
12115;DHT22;6121;49.810;6.418;2023-08-06T09:32:12;17.30;99.90
12115;DHT22;6121;49.810;6.418;2023-08-06T09:34:46;17.40;99.90
12115;DHT22;6121;49.810;6.418;2023-08-06T09:37:12;17.20;99.90
12115;DHT22;6121;49.810;6.418;2023-08-06T09:39:40;17.20;99.90
12115;DHT22;6121;49.810;6.418;2023-08-06T09:42:09;17.40;99.90
12115;DHT22;6121;49.810;6.418;2023-08-06T09:44:35;17.40;99.90
12115;DHT22;6121;49.810;6.418;2023-08-06T09:47:04;17.60;99.90
12115;DHT22;6121;49.810;6.418;2023-08-06T09:51:59;17.70;99.90
12115;DHT22;6121;49.810;6.418;2023-08-06T09:54:27;17.80;99.90
12115;DHT22;6121;49.810;6.418;2023-08-06T09:56:58;17.90;99.90
12115;DHT22;6121;49.810;6.418;2023-08-06T09:59:24;18.00;99.90
12115;DHT22;6121;49.810;6.418;2023-08-06T10:01:51;18.10;99.90
12115;DHT22;6121;49.810;6.418;2023-08-06T10:04:17;17.80;99.90
12115;DHT22;6121;49.810;6.418;2023-08-06T10:06:46;17.90;99.90
12115;DHT22;6121;49.810;6.418;2023-08-06T10:09:14;17.50;99.90
12115;DHT22;6121;49.810;6.418;2023-08-06T10:11:42;17.40;99.90
12115;DHT22;6121;49.810;6.418;2023-08-06T10:14:24;17.40;99.90
12115;DHT22;6121;49.810;6.418;2023-08-06T10:16:54;17.50;99.90
12115;DHT22;6121;49.810;6.418;2023-08-06T10:19:23;17.80;99.90
12115;DHT22;6121;49.810;6.418;2023-08-06T10:22:17;18.00;99.90
12115;DHT22;6121;49.810;6.418;2023-08-06T10:25:01;18.20;99.90
12115;DHT22;6121;49.810;6.418;2023-08-06T10:27:32;18.20;99.90
12115;DHT22;6121;49.810;6.418;2023-08-06T10:30:27;18.10;99.90
12115;DHT22;6121;49.810;6.418;2023-08-06T10:32:54;18.20;99.90
12115;DHT22;6121;49.810;6.418;2023-08-06T10:35:41;18.40;99.90
12115;DHT22;6121;49.810;6.418;2023-08-06T10:38:12;18.60;99.90
12115;DHT22;6121;49.810;6.418;2023-08-06T10:41:02;18.80;99.90
12115;DHT22;6121;49.810;6.418;2023-08-06T10:43:33;19.10;99.90
12115;DHT22;6121;49.810;6.418;2023-08-06T10:46:02;19.00;99.90
12115;DHT22;6121;49.810;6.418;2023-08-06T10:48:39;19.20;99.90
12115;DHT22;6121;49.810;6.418;2023-08-06T10:51:10;19.10;99.90
12115;DHT22;6121;49.810;6.418;2023-08-06T10:53:37;19.10;99.90
12115;DHT22;6121;49.810;6.418;2023-08-06T10:56:14;18.90;99.90
12115;DHT22;6121;49.810;6.418;2023-08-06T10:58:40;19.00;99.90
12115;DHT22;6121;49.810;6.418;2023-08-06T11:01:06;18.90;99.90
12115;DHT22;6121;49.810;6.418;2023-08-06T11:03:33;18.40;99.90
12115;DHT22;6121;49.810;6.418;2023-08-06T11:06:00;19.50;99.90
12115;DHT22;6121;49.810;6.418;2023-08-06T11:08:26;20.50;99.90
12115;DHT22;6121;49.810;6.418;2023-08-06T11:10:53;20.80;99.90
12115;DHT22;6121;49.810;6.418;2023-08-06T11:13:20;20.90;99.90
12115;DHT22;6121;49.810;6.418;2023-08-06T11:15:46;21.50;99.90
12115;DHT22;6121;49.810;6.418;2023-08-06T11:18:12;21.80;99.90
12115;DHT22;6121;49.810;6.418;2023-08-06T11:20:39;22.00;99.90
12115;DHT22;6121;49.810;6.418;2023-08-06T11:23:05;22.10;99.90
12115;DHT22;6121;49.810;6.418;2023-08-06T11:25:36;22.20;99.90
12115;DHT22;6121;49.810;6.418;2023-08-06T11:28:02;22.30;99.90
12115;DHT22;6121;49.810;6.418;2023-08-06T11:30:28;22.50;99.90
12115;DHT22;6121;49.810;6.418;2023-08-06T11:32:54;22.20;99.90
12115;DHT22;6121;49.810;6.418;2023-08-06T11:35:19;21.80;99.90
12115;DHT22;6121;49.810;6.418;2023-08-06T11:37:46;21.80;99.90
12115;DHT22;6121;49.810;6.418;2023-08-06T11:40:14;21.80;99.90
12115;DHT22;6121;49.810;6.418;2023-08-06T11:42:40;22.60;99.90
12115;DHT22;6121;49.810;6.418;2023-08-06T11:45:08;22.40;99.90
12115;DHT22;6121;49.810;6.418;2023-08-06T11:47:38;22.00;99.90
12115;DHT22;6121;49.810;6.418;2023-08-06T11:50:05;22.00;99.90
12115;DHT22;6121;49.810;6.418;2023-08-06T11:52:31;21.80;99.90
12115;DHT22;6121;49.810;6.418;2023-08-06T11:57:29;21.50;99.90
12115;DHT22;6121;49.810;6.418;2023-08-06T12:00:20;21.60;99.90
12115;DHT22;6121;49.810;6.418;2023-08-06T12:02:49;22.30;99.90
12115;DHT22;6121;49.810;6.418;2023-08-06T12:05:16;22.20;99.90
12115;DHT22;6121;49.810;6.418;2023-08-06T12:07:45;21.90;99.90
12115;DHT22;6121;49.810;6.418;2023-08-06T12:10:12;21.90;99.90
12115;DHT22;6121;49.810;6.418;2023-08-06T12:12:38;21.60;99.90
12115;DHT22;6121;49.810;6.418;2023-08-06T12:15:05;21.60;99.90
12115;DHT22;6121;49.810;6.418;2023-08-06T12:17:35;21.70;99.90
12115;DHT22;6121;49.810;6.418;2023-08-06T12:20:02;21.60;99.90
12115;DHT22;6121;49.810;6.418;2023-08-06T12:22:30;21.80;99.90
12115;DHT22;6121;49.810;6.418;2023-08-06T12:25:19;22.00;99.90
12115;DHT22;6121;49.810;6.418;2023-08-06T12:27:46;22.10;99.90
12115;DHT22;6121;49.810;6.418;2023-08-06T12:30:12;22.00;99.90
12115;DHT22;6121;49.810;6.418;2023-08-06T12:32:39;22.20;99.90
12115;DHT22;6121;49.810;6.418;2023-08-06T12:35:05;21.80;99.90
12115;DHT22;6121;49.810;6.418;2023-08-06T12:37:33;21.40;99.90
12115;DHT22;6121;49.810;6.418;2023-08-06T12:39:59;20.90;99.90
12115;DHT22;6121;49.810;6.418;2023-08-06T12:42:24;20.90;99.90
12115;DHT22;6121;49.810;6.418;2023-08-06T12:44:50;21.00;99.90
12115;DHT22;6121;49.810;6.418;2023-08-06T12:47:17;21.00;99.90
12115;DHT22;6121;49.810;6.418;2023-08-06T12:49:43;21.10;99.90
12115;DHT22;6121;49.810;6.418;2023-08-06T12:52:09;21.20;99.90
12115;DHT22;6121;49.810;6.418;2023-08-06T12:54:35;20.90;99.90
12115;DHT22;6121;49.810;6.418;2023-08-06T12:57:02;20.60;99.90
12115;DHT22;6121;49.810;6.418;2023-08-06T12:59:28;20.50;99.90
12115;DHT22;6121;49.810;6.418;2023-08-06T13:01:54;20.20;99.90
12115;DHT22;6121;49.810;6.418;2023-08-06T13:04:20;19.90;99.90
12115;DHT22;6121;49.810;6.418;2023-08-06T13:06:46;19.40;99.90
12115;DHT22;6121;49.810;6.418;2023-08-06T13:09:12;19.50;99.90
12115;DHT22;6121;49.810;6.418;2023-08-06T13:11:39;19.60;99.90
12115;DHT22;6121;49.810;6.418;2023-08-06T13:14:10;19.90;99.90
12115;DHT22;6121;49.810;6.418;2023-08-06T13:16:37;19.90;99.90
12115;DHT22;6121;49.810;6.418;2023-08-06T13:19:03;20.00;99.90
12115;DHT22;6121;49.810;6.418;2023-08-06T13:21:33;19.90;99.90
12115;DHT22;6121;49.810;6.418;2023-08-06T13:24:01;20.00;99.90
12115;DHT22;6121;49.810;6.418;2023-08-06T13:26:28;20.10;99.90
12115;DHT22;6121;49.810;6.418;2023-08-06T13:28:54;19.90;99.90
12115;DHT22;6121;49.810;6.418;2023-08-06T13:31:20;20.00;99.90
12115;DHT22;6121;49.810;6.418;2023-08-06T13:33:46;19.80;99.90
12115;DHT22;6121;49.810;6.418;2023-08-06T13:36:13;20.00;99.90
12115;DHT22;6121;49.810;6.418;2023-08-06T13:38:39;20.10;99.90
12115;DHT22;6121;49.810;6.418;2023-08-06T13:41:05;20.20;99.90
12115;DHT22;6121;49.810;6.418;2023-08-06T13:43:31;20.20;99.90
12115;DHT22;6121;49.810;6.418;2023-08-06T13:45:57;19.90;99.90
12115;DHT22;6121;49.810;6.418;2023-08-06T13:48:23;19.70;99.90
12115;DHT22;6121;49.810;6.418;2023-08-06T13:50:48;19.70;99.90
12115;DHT22;6121;49.810;6.418;2023-08-06T13:53:14;20.10;99.90
12115;DHT22;6121;49.810;6.418;2023-08-06T13:55:40;20.00;99.90
12115;DHT22;6121;49.810;6.418;2023-08-06T13:58:05;20.00;99.90
12115;DHT22;6121;49.810;6.418;2023-08-06T14:00:31;19.80;99.90
12115;DHT22;6121;49.810;6.418;2023-08-06T14:02:57;19.80;99.90
12115;DHT22;6121;49.810;6.418;2023-08-06T14:05:23;19.70;99.90
12115;DHT22;6121;49.810;6.418;2023-08-06T14:07:49;19.90;99.90
12115;DHT22;6121;49.810;6.418;2023-08-06T14:10:14;20.10;99.90
12115;DHT22;6121;49.810;6.418;2023-08-06T14:12:40;20.30;99.90
12115;DHT22;6121;49.810;6.418;2023-08-06T14:15:06;20.30;99.90
12115;DHT22;6121;49.810;6.418;2023-08-06T14:17:32;20.30;99.90
12115;DHT22;6121;49.810;6.418;2023-08-06T14:19:58;20.30;99.90
12115;DHT22;6121;49.810;6.418;2023-08-06T14:22:24;20.30;99.90
12115;DHT22;6121;49.810;6.418;2023-08-06T14:24:50;20.50;99.90
12115;DHT22;6121;49.810;6.418;2023-08-06T14:27:16;20.50;99.90
12115;DHT22;6121;49.810;6.418;2023-08-06T14:29:42;20.70;99.90
12115;DHT22;6121;49.810;6.418;2023-08-06T14:32:07;20.50;99.90
12115;DHT22;6121;49.810;6.418;2023-08-06T14:34:33;20.20;99.90
12115;DHT22;6121;49.810;6.418;2023-08-06T14:36:59;20.10;99.90
12115;DHT22;6121;49.810;6.418;2023-08-06T14:39:25;20.10;99.90
12115;DHT22;6121;49.810;6.418;2023-08-06T14:41:50;20.10;99.90
12115;DHT22;6121;49.810;6.418;2023-08-06T14:44:17;20.20;99.90
12115;DHT22;6121;49.810;6.418;2023-08-06T14:46:42;20.10;99.90
12115;DHT22;6121;49.810;6.418;2023-08-06T14:49:08;19.80;99.90
12115;DHT22;6121;49.810;6.418;2023-08-06T14:51:34;19.80;99.90
12115;DHT22;6121;49.810;6.418;2023-08-06T14:53:59;19.80;99.90
12115;DHT22;6121;49.810;6.418;2023-08-06T14:56:25;19.80;99.90
12115;DHT22;6121;49.810;6.418;2023-08-06T14:58:51;19.70;99.90
12115;DHT22;6121;49.810;6.418;2023-08-06T15:01:17;19.70;99.90
12115;DHT22;6121;49.810;6.418;2023-08-06T15:03:42;19.90;99.90
12115;DHT22;6121;49.810;6.418;2023-08-06T15:06:08;19.80;99.90
12115;DHT22;6121;49.810;6.418;2023-08-06T15:08:34;19.70;99.90
12115;DHT22;6121;49.810;6.418;2023-08-06T15:10:59;19.50;99.90
12115;DHT22;6121;49.810;6.418;2023-08-06T15:13:28;19.50;99.90
12115;DHT22;6121;49.810;6.418;2023-08-06T15:15:54;19.50;99.90
12115;DHT22;6121;49.810;6.418;2023-08-06T15:18:20;19.50;99.90
12115;DHT22;6121;49.810;6.418;2023-08-06T15:20:46;19.50;99.90
12115;DHT22;6121;49.810;6.418;2023-08-06T15:23:11;19.50;99.90
12115;DHT22;6121;49.810;6.418;2023-08-06T15:25:37;19.30;99.90
12115;DHT22;6121;49.810;6.418;2023-08-06T15:28:03;19.30;99.90
12115;DHT22;6121;49.810;6.418;2023-08-06T15:30:29;19.10;99.90
12115;DHT22;6121;49.810;6.418;2023-08-06T15:32:55;19.10;99.90
12115;DHT22;6121;49.810;6.418;2023-08-06T15:35:21;19.40;99.90
12115;DHT22;6121;49.810;6.418;2023-08-06T15:37:47;19.40;99.90
12115;DHT22;6121;49.810;6.418;2023-08-06T15:40:12;19.50;99.90
12115;DHT22;6121;49.810;6.418;2023-08-06T15:42:38;19.40;99.90
12115;DHT22;6121;49.810;6.418;2023-08-06T15:45:04;19.10;99.90
12115;DHT22;6121;49.810;6.418;2023-08-06T15:47:30;18.90;99.90
12115;DHT22;6121;49.810;6.418;2023-08-06T15:49:56;18.80;99.90
12115;DHT22;6121;49.810;6.418;2023-08-06T15:52:22;18.90;99.90